sensor_id;sensor_type;location;lat;lon;timestamp;pressure;altitude;pressure_sealevel;temperature
13497;BMP180;6820;49.374;8.452;2023-03-23T00:00:32;99825.50;;;22.07
13497;BMP180;6820;49.374;8.452;2023-03-23T00:04:33;99823.72;;;22.00
13497;BMP180;6820;49.374;8.452;2023-03-23T00:08:35;99816.84;;;21.97
13497;BMP180;6820;49.374;8.452;2023-03-23T00:12:45;99804.78;;;21.94
13497;BMP180;6820;49.374;8.452;2023-03-23T00:16:49;99800.50;;;21.98
13497;BMP180;6820;49.374;8.452;2023-03-23T00:20:57;99808.19;;;21.96
13497;BMP180;6820;49.374;8.452;2023-03-23T00:24:57;99802.19;;;21.96
13497;BMP180;6820;49.374;8.452;2023-03-23T00:28:58;99794.44;;;21.94
13497;BMP180;6820;49.374;8.452;2023-03-23T00:33:00;99796.16;;;21.92
13497;BMP180;6820;49.374;8.452;2023-03-23T00:37:01;99790.09;;;21.90
13497;BMP180;6820;49.374;8.452;2023-03-23T00:41:01;99799.56;;;21.87
13497;BMP180;6820;49.374;8.452;2023-03-23T00:45:05;99812.44;;;21.84
13497;BMP180;6820;49.374;8.452;2023-03-23T00:49:15;99807.28;;;21.85
13497;BMP180;6820;49.374;8.452;2023-03-23T00:53:17;99805.59;;;21.89
13497;BMP180;6820;49.374;8.452;2023-03-23T00:57:19;99810.72;;;21.87
13497;BMP180;6820;49.374;8.452;2023-03-23T01:01:20;99816.78;;;21.89
13497;BMP180;6820;49.374;8.452;2023-03-23T01:05:20;99807.28;;;21.88
13497;BMP180;6820;49.374;8.452;2023-03-23T01:09:21;99802.97;;;21.84
13497;BMP180;6820;49.374;8.452;2023-03-23T01:13:22;99796.00;;;21.71
13497;BMP180;6820;49.374;8.452;2023-03-23T01:17:23;99789.06;;;21.65
13497;BMP180;6820;49.374;8.452;2023-03-23T01:21:23;99784.75;;;21.62
13497;BMP180;6820;49.374;8.452;2023-03-23T01:25:29;99776.16;;;21.62
13497;BMP180;6820;49.374;8.452;2023-03-23T01:29:30;99782.16;;;21.64
13497;BMP180;6820;49.374;8.452;2023-03-23T01:33:31;99764.09;;;21.59
13497;BMP180;6820;49.374;8.452;2023-03-23T01:37:32;99761.53;;;21.61
13497;BMP180;6820;49.374;8.452;2023-03-23T01:41:34;99753.78;;;21.58
13497;BMP180;6820;49.374;8.452;2023-03-23T01:45:40;99755.47;;;21.56
13497;BMP180;6820;49.374;8.452;2023-03-23T01:49:44;99754.63;;;21.58
13497;BMP180;6820;49.374;8.452;2023-03-23T01:53:49;99759.81;;;21.61
13497;BMP180;6820;49.374;8.452;2023-03-23T01:57:50;99743.47;;;21.61
13497;BMP180;6820;49.374;8.452;2023-03-23T02:01:53;99729.72;;;21.60
13497;BMP180;6820;49.374;8.452;2023-03-23T02:05:56;99733.16;;;21.59
13497;BMP180;6820;49.374;8.452;2023-03-23T02:10:10;99719.34;;;21.53
13497;BMP180;6820;49.374;8.452;2023-03-23T02:14:12;99723.66;;;21.52
13497;BMP180;6820;49.374;8.452;2023-03-23T02:18:16;99726.22;;;21.52
13497;BMP180;6820;49.374;8.452;2023-03-23T02:26:53;99741.66;;;21.48
13497;BMP180;6820;49.374;8.452;2023-03-23T02:35:31;99727.09;;;21.51
13497;BMP180;6820;49.374;8.452;2023-03-23T02:39:42;99717.66;;;21.55
13497;BMP180;6820;49.374;8.452;2023-03-23T02:43:47;99714.25;;;21.57
13497;BMP180;6820;49.374;8.452;2023-03-23T02:47:52;99705.66;;;21.60
13497;BMP180;6820;49.374;8.452;2023-03-23T02:51:55;99703.06;;;21.58
13497;BMP180;6820;49.374;8.452;2023-03-23T02:55:57;99705.63;;;21.55
13497;BMP180;6820;49.374;8.452;2023-03-23T03:00:01;99709.06;;;21.56
13497;BMP180;6820;49.374;8.452;2023-03-23T03:04:10;99702.19;;;21.55
13497;BMP180;6820;49.374;8.452;2023-03-23T03:08:21;99698.72;;;21.53
13497;BMP180;6820;49.374;8.452;2023-03-23T03:13:01;99707.31;;;21.52
13497;BMP180;6820;49.374;8.452;2023-03-23T03:17:14;99695.25;;;21.48
13497;BMP180;6820;49.374;8.452;2023-03-23T03:21:18;99685.81;;;21.48
13497;BMP180;6820;49.374;8.452;2023-03-23T03:25:26;99695.25;;;21.48
13497;BMP180;6820;49.374;8.452;2023-03-23T03:29:34;99713.28;;;21.46
13497;BMP180;6820;49.374;8.452;2023-03-23T03:33:36;99699.53;;;21.47
13497;BMP180;6820;49.374;8.452;2023-03-23T03:37:38;99699.56;;;21.46
13497;BMP180;6820;49.374;8.452;2023-03-23T03:41:40;99702.97;;;21.43
13497;BMP180;6820;49.374;8.452;2023-03-23T03:45:42;99699.53;;;21.44
13497;BMP180;6820;49.374;8.452;2023-03-23T03:49:45;99701.22;;;21.41
13497;BMP180;6820;49.374;8.452;2023-03-23T03:53:45;99696.94;;;21.41
13497;BMP180;6820;49.374;8.452;2023-03-23T03:57:46;99699.50;;;21.43
13497;BMP180;6820;49.374;8.452;2023-03-23T04:02:07;99688.34;;;21.41
13497;BMP180;6820;49.374;8.452;2023-03-23T04:06:09;99689.16;;;21.40
13497;BMP180;6820;49.374;8.452;2023-03-23T04:10:10;99705.56;;;21.43
13497;BMP180;6820;49.374;8.452;2023-03-23T04:14:16;99696.06;;;21.42
13497;BMP180;6820;49.374;8.452;2023-03-23T04:18:18;99710.69;;;21.43
13497;BMP180;6820;49.374;8.452;2023-03-23T04:22:23;99710.69;;;21.43
13497;BMP180;6820;49.374;8.452;2023-03-23T04:26:30;99707.25;;;21.41
13497;BMP180;6820;49.374;8.452;2023-03-23T04:30:44;99714.94;;;21.40
13497;BMP180;6820;49.374;8.452;2023-03-23T04:34:46;99710.69;;;21.40
13497;BMP180;6820;49.374;8.452;2023-03-23T04:38:46;99728.72;;;21.40
13497;BMP180;6820;49.374;8.452;2023-03-23T04:42:54;99729.59;;;21.41
13497;BMP180;6820;49.374;8.452;2023-03-23T04:47:07;99750.22;;;21.44
13497;BMP180;6820;49.374;8.452;2023-03-23T04:51:13;99743.31;;;21.38
13497;BMP180;6820;49.374;8.452;2023-03-23T04:55:16;99739.84;;;21.35
13497;BMP180;6820;49.374;8.452;2023-03-23T04:59:22;99743.22;;;21.31
13497;BMP180;6820;49.374;8.452;2023-03-23T05:03:41;99754.28;;;21.21
13497;BMP180;6820;49.374;8.452;2023-03-23T05:07:42;99755.16;;;21.22
13497;BMP180;6820;49.374;8.452;2023-03-23T05:11:42;99745.69;;;21.21
13497;BMP180;6820;49.374;8.452;2023-03-23T05:15:44;99752.53;;;21.19
13497;BMP180;6820;49.374;8.452;2023-03-23T05:19:45;99745.69;;;21.21
13497;BMP180;6820;49.374;8.452;2023-03-23T05:24:07;99744.88;;;21.25
13497;BMP180;6820;49.374;8.452;2023-03-23T05:28:10;99756.03;;;21.27
13497;BMP180;6820;49.374;8.452;2023-03-23T05:32:32;99751.72;;;21.23
13497;BMP180;6820;49.374;8.452;2023-03-23T05:36:45;99753.44;;;21.24
13497;BMP180;6820;49.374;8.452;2023-03-23T05:41:09;99743.13;;;21.24
13497;BMP180;6820;49.374;8.452;2023-03-23T05:45:14;99747.47;;;21.28
13497;BMP180;6820;49.374;8.452;2023-03-23T05:49:18;99755.22;;;21.28
13497;BMP180;6820;49.374;8.452;2023-03-23T05:53:20;99758.66;;;21.28
13497;BMP180;6820;49.374;8.452;2023-03-23T05:57:21;99762.09;;;21.32
13497;BMP180;6820;49.374;8.452;2023-03-23T06:01:30;99773.34;;;21.37
13497;BMP180;6820;49.374;8.452;2023-03-23T06:05:32;99775.94;;;21.37
13497;BMP180;6820;49.374;8.452;2023-03-23T06:09:33;99781.97;;;21.38
13497;BMP180;6820;49.374;8.452;2023-03-23T06:14:05;99779.38;;;21.40
13497;BMP180;6820;49.374;8.452;2023-03-23T06:18:06;99783.72;;;21.41
13497;BMP180;6820;49.374;8.452;2023-03-23T06:22:27;99799.28;;;21.51
13497;BMP180;6820;49.374;8.452;2023-03-23T06:26:42;99794.09;;;21.50
13497;BMP180;6820;49.374;8.452;2023-03-23T06:30:49;99792.41;;;21.52
13497;BMP180;6820;49.374;8.452;2023-03-23T06:34:50;99805.31;;;21.56
13497;BMP180;6820;49.374;8.452;2023-03-23T06:39:09;99799.31;;;21.59
13497;BMP180;6820;49.374;8.452;2023-03-23T06:43:39;99800.25;;;21.65
13497;BMP180;6820;49.374;8.452;2023-03-23T06:47:46;99806.28;;;21.67
13497;BMP180;6820;49.374;8.452;2023-03-23T06:51:49;99824.31;;;21.66
13497;BMP180;6820;49.374;8.452;2023-03-23T06:55:50;99822.59;;;21.62
13497;BMP180;6820;49.374;8.452;2023-03-23T06:59:51;99839.75;;;21.61
13497;BMP180;6820;49.374;8.452;2023-03-23T07:03:54;99837.19;;;21.63
13497;BMP180;6820;49.374;8.452;2023-03-23T07:08:04;99859.44;;;21.53
13497;BMP180;6820;49.374;8.452;2023-03-23T07:12:20;99858.41;;;21.34
13497;BMP180;6820;49.374;8.452;2023-03-23T07:16:22;99866.94;;;21.31
13497;BMP180;6820;49.374;8.452;2023-03-23T07:20:25;99878.91;;;21.25
13497;BMP180;6820;49.374;8.452;2023-03-23T07:24:25;99868.59;;;21.25
13497;BMP180;6820;49.374;8.452;2023-03-23T07:28:41;99854.78;;;21.20
13497;BMP180;6820;49.374;8.452;2023-03-23T07:33:10;99864.22;;;21.21
13497;BMP180;6820;49.374;8.452;2023-03-23T07:37:12;99870.38;;;21.30
13497;BMP180;6820;49.374;8.452;2023-03-23T07:41:15;99879.06;;;21.39
13497;BMP180;6820;49.374;8.452;2023-03-23T07:45:17;99889.38;;;21.39
13497;BMP180;6820;49.374;8.452;2023-03-23T07:49:18;99899.66;;;21.35
13497;BMP180;6820;49.374;8.452;2023-03-23T07:53:28;99908.19;;;21.33
13497;BMP180;6820;49.374;8.452;2023-03-23T07:57:41;99907.28;;;21.28
13497;BMP180;6820;49.374;8.452;2023-03-23T08:01:41;99902.88;;;21.19
13497;BMP180;6820;49.374;8.452;2023-03-23T08:06:00;99912.22;;;21.08
13497;BMP180;6820;49.374;8.452;2023-03-23T08:10:24;99922.59;;;21.16
13497;BMP180;6820;49.374;8.452;2023-03-23T08:14:46;99935.53;;;21.20
13497;BMP180;6820;49.374;8.452;2023-03-23T08:19:06;99925.25;;;21.22
13497;BMP180;6820;49.374;8.452;2023-03-23T08:23:26;99929.50;;;21.18
13497;BMP180;6820;49.374;8.452;2023-03-23T08:27:45;99933.03;;;21.29
13497;BMP180;6820;49.374;8.452;2023-03-23T08:32:06;99923.66;;;21.33
13497;BMP180;6820;49.374;8.452;2023-03-23T08:36:20;99925.50;;;21.41
13497;BMP180;6820;49.374;8.452;2023-03-23T08:40:34;99924.72;;;21.49
13497;BMP180;6820;49.374;8.452;2023-03-23T08:44:53;99925.47;;;21.39
13497;BMP180;6820;49.374;8.452;2023-03-23T08:49:20;99941.59;;;21.27
13497;BMP180;6820;49.374;8.452;2023-03-23T08:53:34;99933.94;;;21.30
13497;BMP180;6820;49.374;8.452;2023-03-23T08:57:53;99932.38;;;21.40
13497;BMP180;6820;49.374;8.452;2023-03-23T09:02:11;99932.56;;;21.60
13497;BMP180;6820;49.374;8.452;2023-03-23T09:06:38;99950.88;;;21.83
13497;BMP180;6820;49.374;8.452;2023-03-23T09:10:38;99939.84;;;21.99
13497;BMP180;6820;49.374;8.452;2023-03-23T09:14:39;99954.63;;;22.13
13497;BMP180;6820;49.374;8.452;2023-03-23T09:18:40;99953.00;;;22.24
13497;BMP180;6820;49.374;8.452;2023-03-23T09:22:44;99958.19;;;22.30
13497;BMP180;6820;49.374;8.452;2023-03-23T09:26:45;99949.78;;;22.58
13497;BMP180;6820;49.374;8.452;2023-03-23T09:30:46;99958.44;;;22.65
13497;BMP180;6820;49.374;8.452;2023-03-23T09:34:47;99962.00;;;22.79
13497;BMP180;6820;49.374;8.452;2023-03-23T09:38:48;99964.66;;;22.88
13497;BMP180;6820;49.374;8.452;2023-03-23T09:51:44;99968.19;;;23.03
13497;BMP180;6820;49.374;8.452;2023-03-23T09:55:46;99976.78;;;22.98
13497;BMP180;6820;49.374;8.452;2023-03-23T10:00:09;99968.19;;;23.03
13497;BMP180;6820;49.374;8.452;2023-03-23T10:08:32;99973.38;;;23.09
13497;BMP180;6820;49.374;8.452;2023-03-23T10:12:51;99976.75;;;22.96
13497;BMP180;6820;49.374;8.452;2023-03-23T10:21:18;99949.19;;;22.95
13497;BMP180;6820;49.374;8.452;2023-03-23T10:25:23;99950.03;;;22.97
13497;BMP180;6820;49.374;8.452;2023-03-23T10:29:34;99950.88;;;22.88
13497;BMP180;6820;49.374;8.452;2023-03-23T10:33:43;99944.03;;;22.95
13497;BMP180;6820;49.374;8.452;2023-03-23T10:37:48;99954.50;;;23.22
13497;BMP180;6820;49.374;8.452;2023-03-23T10:41:50;99951.13;;;23.50
13497;BMP180;6820;49.374;8.452;2023-03-23T10:46:04;99950.38;;;23.84
13497;BMP180;6820;49.374;8.452;2023-03-23T10:50:17;99959.03;;;24.12
13497;BMP180;6820;49.374;8.452;2023-03-23T10:54:32;99971.09;;;23.86
13497;BMP180;6820;49.374;8.452;2023-03-23T10:58:35;99978.69;;;23.39
13497;BMP180;6820;49.374;8.452;2023-03-23T11:02:41;99983.78;;;23.17
13497;BMP180;6820;49.374;8.452;2023-03-23T11:06:49;99978.56;;;23.12
13497;BMP180;6820;49.374;8.452;2023-03-23T11:10:57;99974.31;;;23.26
13497;BMP180;6820;49.374;8.452;2023-03-23T11:15:09;99976.13;;;23.49
13497;BMP180;6820;49.374;8.452;2023-03-23T11:19:22;99978.81;;;23.77
13497;BMP180;6820;49.374;8.452;2023-03-23T11:23:33;99988.31;;;23.71
13497;BMP180;6820;49.374;8.452;2023-03-23T11:27:34;99974.53;;;23.78
13497;BMP180;6820;49.374;8.452;2023-03-23T11:31:39;99974.53;;;23.92
13497;BMP180;6820;49.374;8.452;2023-03-23T11:35:44;99961.63;;;24.06
13497;BMP180;6820;49.374;8.452;2023-03-23T11:39:55;99958.16;;;24.02
13497;BMP180;6820;49.374;8.452;2023-03-23T11:43:56;99951.25;;;23.91
13497;BMP180;6820;49.374;8.452;2023-03-23T11:48:26;99950.31;;;23.67
13497;BMP180;6820;49.374;8.452;2023-03-23T11:53:01;99967.47;;;23.41
13497;BMP180;6820;49.374;8.452;2023-03-23T11:57:09;99973.50;;;23.36
13497;BMP180;6820;49.374;8.452;2023-03-23T12:01:21;99966.53;;;23.23
13497;BMP180;6820;49.374;8.452;2023-03-23T12:05:30;99957.03;;;23.15
13497;BMP180;6820;49.374;8.452;2023-03-23T12:13:42;99952.69;;;23.09
13497;BMP180;6820;49.374;8.452;2023-03-23T12:18:06;99952.69;;;23.08
13497;BMP180;6820;49.374;8.452;2023-03-23T12:26:18;99952.72;;;23.15
13497;BMP180;6820;49.374;8.452;2023-03-23T12:30:27;99943.22;;;23.10
13497;BMP180;6820;49.374;8.452;2023-03-23T12:34:53;99944.06;;;23.04
13497;BMP180;6820;49.374;8.452;2023-03-23T12:43:37;99929.31;;;22.84
13497;BMP180;6820;49.374;8.452;2023-03-23T12:48:00;99932.75;;;22.82
13497;BMP180;6820;49.374;8.452;2023-03-23T12:52:23;99925.00;;;22.82
13497;BMP180;6820;49.374;8.452;2023-03-23T12:56:30;99923.25;;;22.79
13497;BMP180;6820;49.374;8.452;2023-03-23T13:05:00;99876.88;;;23.13
13497;BMP180;6820;49.374;8.452;2023-03-23T13:09:09;99897.59;;;23.19
13497;BMP180;6820;49.374;8.452;2023-03-23T13:13:55;99895.81;;;23.03
13497;BMP180;6820;49.374;8.452;2023-03-23T13:22:41;99896.56;;;22.83
13497;BMP180;6820;49.374;8.452;2023-03-23T13:26:43;99892.25;;;22.79
13497;BMP180;6820;49.374;8.452;2023-03-23T13:30:56;99902.56;;;22.78
13497;BMP180;6820;49.374;8.452;2023-03-23T13:35:04;99899.94;;;22.75
13497;BMP180;6820;49.374;8.452;2023-03-23T13:39:18;99903.41;;;22.75
13497;BMP180;6820;49.374;8.452;2023-03-23T13:43:34;99906.81;;;22.73
13497;BMP180;6820;49.374;8.452;2023-03-23T13:47:40;99910.25;;;22.69
13497;BMP180;6820;49.374;8.452;2023-03-23T13:55:50;99913.66;;;22.62
13497;BMP180;6820;49.374;8.452;2023-03-23T13:59:57;99894.69;;;22.57
13497;BMP180;6820;49.374;8.452;2023-03-23T14:03:59;99900.69;;;22.55
13497;BMP180;6820;49.374;8.452;2023-03-23T14:12:21;99900.69;;;22.50
13497;BMP180;6820;49.374;8.452;2023-03-23T14:16:45;99895.50;;;22.52
13497;BMP180;6820;49.374;8.452;2023-03-23T14:20:46;99895.50;;;22.52
13497;BMP180;6820;49.374;8.452;2023-03-23T14:24:48;99892.06;;;22.50
13497;BMP180;6820;49.374;8.452;2023-03-23T14:28:53;99878.25;;;22.46
13497;BMP180;6820;49.374;8.452;2023-03-23T14:33:03;99898.00;;;22.34
13497;BMP180;6820;49.374;8.452;2023-03-23T14:37:11;99903.06;;;22.25
13497;BMP180;6820;49.374;8.452;2023-03-23T14:41:13;99896.28;;;22.34
13497;BMP180;6820;49.374;8.452;2023-03-23T14:45:17;99892.03;;;22.47
13497;BMP180;6820;49.374;8.452;2023-03-23T14:49:23;99882.56;;;22.46
13497;BMP180;6820;49.374;8.452;2023-03-23T14:57:34;99886.00;;;22.45
13497;BMP180;6820;49.374;8.452;2023-03-23T15:01:36;99888.66;;;22.57
13497;BMP180;6820;49.374;8.452;2023-03-23T15:05:42;99887.88;;;22.72
13497;BMP180;6820;49.374;8.452;2023-03-23T15:09:45;99893.06;;;22.72
13497;BMP180;6820;49.374;8.452;2023-03-23T15:13:50;99886.97;;;22.61
13497;BMP180;6820;49.374;8.452;2023-03-23T15:17:51;99903.31;;;22.59
13497;BMP180;6820;49.374;8.452;2023-03-23T15:22:03;99903.28;;;22.55
13497;BMP180;6820;49.374;8.452;2023-03-23T15:26:05;99911.84;;;22.48
13497;BMP180;6820;49.374;8.452;2023-03-23T15:30:15;99904.91;;;22.39
13497;BMP180;6820;49.374;8.452;2023-03-23T15:34:27;99894.63;;;22.47
13497;BMP180;6820;49.374;8.452;2023-03-23T15:38:30;99881.72;;;22.48
13497;BMP180;6820;49.374;8.452;2023-03-23T15:42:33;99868.03;;;22.64
13497;BMP180;6820;49.374;8.452;2023-03-23T15:46:34;99852.69;;;22.88
13497;BMP180;6820;49.374;8.452;2023-03-23T15:50:35;99853.59;;;23.04
13497;BMP180;6820;49.374;8.452;2023-03-23T15:54:36;99851.91;;;23.15
13497;BMP180;6820;49.374;8.452;2023-03-23T15:58:37;99843.31;;;23.19
13497;BMP180;6820;49.374;8.452;2023-03-23T16:02:40;99834.69;;;23.26
13497;BMP180;6820;49.374;8.452;2023-03-23T16:06:44;99835.56;;;23.28
13497;BMP180;6820;49.374;8.452;2023-03-23T16:10:46;99825.22;;;23.34
13497;BMP180;6820;49.374;8.452;2023-03-23T16:14:47;99833.84;;;23.37
13497;BMP180;6820;49.374;8.452;2023-03-23T16:18:49;99827.84;;;23.35
13497;BMP180;6820;49.374;8.452;2023-03-23T16:22:51;99822.63;;;23.26
13497;BMP180;6820;49.374;8.452;2023-03-23T16:26:53;99832.97;;;23.21
13497;BMP180;6820;49.374;8.452;2023-03-23T16:30:54;99824.31;;;23.07
13497;BMP180;6820;49.374;8.452;2023-03-23T16:34:56;99819.97;;;22.97
13497;BMP180;6820;49.374;8.452;2023-03-23T16:38:58;99820.81;;;22.90
13497;BMP180;6820;49.374;8.452;2023-03-23T16:42:59;99809.59;;;22.81
13497;BMP180;6820;49.374;8.452;2023-03-23T16:47:01;99815.56;;;22.74
13497;BMP180;6820;49.374;8.452;2023-03-23T16:51:02;99808.63;;;22.65
13497;BMP180;6820;49.374;8.452;2023-03-23T16:55:06;99818.06;;;22.59
13497;BMP180;6820;49.374;8.452;2023-03-23T16:59:07;99818.91;;;22.54
13497;BMP180;6820;49.374;8.452;2023-03-23T17:03:09;99807.72;;;22.56
13497;BMP180;6820;49.374;8.452;2023-03-23T17:07:12;99800.84;;;22.55
13497;BMP180;6820;49.374;8.452;2023-03-23T17:11:14;99798.25;;;22.51
13497;BMP180;6820;49.374;8.452;2023-03-23T17:15:16;99800.81;;;22.48
13497;BMP180;6820;49.374;8.452;2023-03-23T17:19:17;99813.72;;;22.42
13497;BMP180;6820;49.374;8.452;2023-03-23T17:23:19;99799.06;;;22.39
13497;BMP180;6820;49.374;8.452;2023-03-23T17:27:22;99799.00;;;22.33
13497;BMP180;6820;49.374;8.452;2023-03-23T17:31:24;99792.13;;;22.31
13497;BMP180;6820;49.374;8.452;2023-03-23T17:35:25;99806.72;;;22.25
13497;BMP180;6820;49.374;8.452;2023-03-23T17:39:28;99799.00;;;22.26
13497;BMP180;6820;49.374;8.452;2023-03-23T17:43:29;99801.56;;;22.23
13497;BMP180;6820;49.374;8.452;2023-03-23T17:47:32;99800.66;;;22.20
13497;BMP180;6820;49.374;8.452;2023-03-23T17:51:34;99801.50;;;22.20
13497;BMP180;6820;49.374;8.452;2023-03-23T17:55:36;99808.41;;;22.21
13497;BMP180;6820;49.374;8.452;2023-03-23T17:59:37;99808.41;;;22.21
13497;BMP180;6820;49.374;8.452;2023-03-23T18:03:39;99817.00;;;22.16
13497;BMP180;6820;49.374;8.452;2023-03-23T18:07:41;99821.25;;;22.11
13497;BMP180;6820;49.374;8.452;2023-03-23T18:11:42;99816.97;;;22.14
13497;BMP180;6820;49.374;8.452;2023-03-23T18:15:44;99799.69;;;22.07
13497;BMP180;6820;49.374;8.452;2023-03-23T18:19:47;99805.75;;;22.08
13497;BMP180;6820;49.374;8.452;2023-03-23T18:23:49;99795.38;;;22.06
13497;BMP180;6820;49.374;8.452;2023-03-23T18:28:00;99798.81;;;22.02
13497;BMP180;6820;49.374;8.452;2023-03-23T18:32:05;99800.53;;;22.03
13497;BMP180;6820;49.374;8.452;2023-03-23T18:36:08;99784.19;;;22.03
13497;BMP180;6820;49.374;8.452;2023-03-23T18:40:10;99784.13;;;21.96
13497;BMP180;6820;49.374;8.452;2023-03-23T18:44:12;99786.66;;;21.87
13497;BMP180;6820;49.374;8.452;2023-03-23T18:48:14;99795.22;;;21.84
13497;BMP180;6820;49.374;8.452;2023-03-23T18:52:19;99797.84;;;21.86
13497;BMP180;6820;49.374;8.452;2023-03-23T18:56:20;99785.78;;;21.86
13497;BMP180;6820;49.374;8.452;2023-03-23T19:00:22;99790.09;;;21.87
13497;BMP180;6820;49.374;8.452;2023-03-23T19:04:24;99786.66;;;21.90
13497;BMP180;6820;49.374;8.452;2023-03-23T19:08:27;99790.97;;;21.91
13497;BMP180;6820;49.374;8.452;2023-03-23T19:12:28;99787.56;;;21.92
13497;BMP180;6820;49.374;8.452;2023-03-23T19:16:31;99788.38;;;21.91
13497;BMP180;6820;49.374;8.452;2023-03-23T19:20:35;99787.53;;;21.90
13497;BMP180;6820;49.374;8.452;2023-03-23T19:24:57;99788.41;;;21.89
13497;BMP180;6820;49.374;8.452;2023-03-23T19:28:59;99790.97;;;21.86
13497;BMP180;6820;49.374;8.452;2023-03-23T19:33:03;99789.19;;;21.78
13497;BMP180;6820;49.374;8.452;2023-03-23T19:37:05;99784.75;;;21.59
13497;BMP180;6820;49.374;8.452;2023-03-23T19:41:11;99777.56;;;21.32
13497;BMP180;6820;49.374;8.452;2023-03-23T19:45:13;99775.78;;;21.23
13497;BMP180;6820;49.374;8.452;2023-03-23T19:49:14;99776.59;;;21.18
13497;BMP180;6820;49.374;8.452;2023-03-23T19:53:16;99773.97;;;21.15
13497;BMP180;6820;49.374;8.452;2023-03-23T19:57:19;99765.41;;;21.16
13497;BMP180;6820;49.374;8.452;2023-03-23T20:01:21;99771.44;;;21.18
13497;BMP180;6820;49.374;8.452;2023-03-23T20:05:23;99769.75;;;21.20
13497;BMP180;6820;49.374;8.452;2023-03-23T20:09:24;99768.03;;;21.20
13497;BMP180;6820;49.374;8.452;2023-03-23T20:13:26;99760.25;;;21.19
13497;BMP180;6820;49.374;8.452;2023-03-23T20:17:28;99765.47;;;21.23
13497;BMP180;6820;49.374;8.452;2023-03-23T20:21:29;99760.38;;;21.28
13497;BMP180;6820;49.374;8.452;2023-03-23T20:25:31;99756.94;;;21.27
13497;BMP180;6820;49.374;8.452;2023-03-23T20:29:35;99752.63;;;21.28
13497;BMP180;6820;49.374;8.452;2023-03-23T20:33:36;99756.91;;;21.26
13497;BMP180;6820;49.374;8.452;2023-03-23T20:37:39;99751.78;;;21.27
13497;BMP180;6820;49.374;8.452;2023-03-23T20:41:41;99743.22;;;21.30
13497;BMP180;6820;49.374;8.452;2023-03-23T20:45:44;99734.66;;;21.34
13497;BMP180;6820;49.374;8.452;2023-03-23T20:49:46;99735.56;;;21.38
13497;BMP180;6820;49.374;8.452;2023-03-23T20:53:54;99734.75;;;21.44
13497;BMP180;6820;49.374;8.452;2023-03-23T20:57:55;99734.75;;;21.45
13497;BMP180;6820;49.374;8.452;2023-03-23T21:01:57;99731.34;;;21.48
13497;BMP180;6820;49.374;8.452;2023-03-23T21:06:00;99715.88;;;21.46
13497;BMP180;6820;49.374;8.452;2023-03-23T21:10:03;99715.00;;;21.47
13497;BMP180;6820;49.374;8.452;2023-03-23T21:14:05;99711.59;;;21.50
13497;BMP180;6820;49.374;8.452;2023-03-23T21:18:08;99715.91;;;21.52
13497;BMP180;6820;49.374;8.452;2023-03-23T21:22:10;99705.59;;;21.52
13497;BMP180;6820;49.374;8.452;2023-03-23T21:26:15;99704.75;;;21.52
13497;BMP180;6820;49.374;8.452;2023-03-23T21:30:18;99697.88;;;21.52
13497;BMP180;6820;49.374;8.452;2023-03-23T21:34:20;99695.31;;;21.54
13497;BMP180;6820;49.374;8.452;2023-03-23T21:38:22;99697.91;;;21.57
13497;BMP180;6820;49.374;8.452;2023-03-23T21:42:27;99687.59;;;21.60
13497;BMP180;6820;49.374;8.452;2023-03-23T21:46:31;99687.59;;;21.61
13497;BMP180;6820;49.374;8.452;2023-03-23T21:50:38;99689.34;;;21.62
13497;BMP180;6820;49.374;8.452;2023-03-23T21:54:42;99694.50;;;21.62
13497;BMP180;6820;49.374;8.452;2023-03-23T21:58:44;99676.44;;;21.59
13497;BMP180;6820;49.374;8.452;2023-03-23T22:02:46;99671.25;;;21.58
13497;BMP180;6820;49.374;8.452;2023-03-23T22:06:47;99661.81;;;21.58
13497;BMP180;6820;49.374;8.452;2023-03-23T22:10:50;99663.53;;;21.59
13497;BMP180;6820;49.374;8.452;2023-03-23T22:15:06;99658.38;;;21.58
13497;BMP180;6820;49.374;8.452;2023-03-23T22:19:09;99655.78;;;21.58
13497;BMP180;6820;49.374;8.452;2023-03-23T22:23:10;99666.09;;;21.58
13497;BMP180;6820;49.374;8.452;2023-03-23T22:27:12;99649.75;;;21.56
13497;BMP180;6820;49.374;8.452;2023-03-23T22:31:16;99636.00;;;21.55
13497;BMP180;6820;49.374;8.452;2023-03-23T22:35:19;99629.97;;;21.52
13497;BMP180;6820;49.374;8.452;2023-03-23T22:39:20;99632.53;;;21.50
13497;BMP180;6820;49.374;8.452;2023-03-23T22:43:23;99634.28;;;21.51
13497;BMP180;6820;49.374;8.452;2023-03-23T22:47:25;99644.56;;;21.53
13497;BMP180;6820;49.374;8.452;2023-03-23T22:51:27;99628.28;;;21.54
13497;BMP180;6820;49.374;8.452;2023-03-23T22:55:28;99627.38;;;21.53
13497;BMP180;6820;49.374;8.452;2023-03-23T22:59:30;99632.50;;;21.47
13497;BMP180;6820;49.374;8.452;2023-03-23T23:03:32;99620.53;;;21.52
13497;BMP180;6820;49.374;8.452;2023-03-23T23:07:35;99622.25;;;21.52
13497;BMP180;6820;49.374;8.452;2023-03-23T23:11:36;99624.78;;;21.50
13497;BMP180;6820;49.374;8.452;2023-03-23T23:15:48;99622.25;;;21.52
13497;BMP180;6820;49.374;8.452;2023-03-23T23:19:50;99620.53;;;21.52
13497;BMP180;6820;49.374;8.452;2023-03-23T23:23:52;99601.56;;;21.44
13497;BMP180;6820;49.374;8.452;2023-03-23T23:27:55;99613.56;;;21.37
13497;BMP180;6820;49.374;8.452;2023-03-23T23:31:58;99582.59;;;21.34
13497;BMP180;6820;49.374;8.452;2023-03-23T23:36:02;99586.84;;;21.30
13497;BMP180;6820;49.374;8.452;2023-03-23T23:40:05;99582.53;;;21.28
13497;BMP180;6820;49.374;8.452;2023-03-23T23:44:09;99584.25;;;21.27
13497;BMP180;6820;49.374;8.452;2023-03-23T23:48:11;99576.50;;;21.26
13497;BMP180;6820;49.374;8.452;2023-03-23T23:52:13;99572.22;;;21.25
13497;BMP180;6820;49.374;8.452;2023-03-23T23:56:14;99569.63;;;21.22
